Auburn, IN

1:19 PM EDT on July 22, 2017 (GMT -0400)
Auburn

Weather History for KGWB - February, 2013

Change the Weather History Date:

Saturday, February 9, 2013

  Actual Average (KFWA) Record (KFWA)
Temperature  
Mean Temperature 24 °F -  
Max Temperature 32 °F 31 °F 59 °F (1966)
Min Temperature 15 °F 12 °F -19 °F (1899)
Degree Days  
Heating Degree Days 42    
Moisture  
Dew Point 18 °F    
Average Humidity 75    
Maximum Humidity 93    
Minimum Humidity 60    
Precipitation  
Precipitation 0.00 in - - ()
Sea Level Pressure  
Sea Level Pressure 30.34 in    
Wind  
Wind Speed 3 mph (ESE)    
Max Wind Speed 9 mph    
Max Gust Speed -    
Visibility 10 miles    
Events      
Averages and records for this station are not official NWS values.
T = Trace of Precipitation, MM = Missing Value Source: NWS Daily Summary

Daily Weather History Graph

Daily Weather History Graph

Search for Another Location

Airport or City:

Trip Planner

Search our weather history database for the weather conditions in past years. The results will help you decide how hot, cold, wet, or windy it might be!

Date:

Astronomy

Feb. 09, 2013 Rise Set
Actual Time 7:42 AM EST 6:07 PM EST
Civil Twilight 7:13 AM EST 6:35 PM EST
Nautical Twilight 6:41 AM EST 7:08 PM EST
Astronomical Twilight 6:08 AM EST 7:40 PM EST
Moon 6:53 AM EST (2/9) 5:49 PM EST (2/9)
Length of Visible Light 11h 22m
Length of Day
10h 24m
Waning Crescent, 0% of the Moon is Illuminated
Feb 9
Waning Crescent
Feb 10
New
Feb 17
First Quarter
Feb 25
Full
Mar 4
Last Quarter

Hourly Weather History & Observations

Time (EST) Temp. Windchill Dew Point Humidity Pressure Visibility Wind Dir Wind Speed Gust Speed Precip Events Conditions
12:15 AM 23.0 °F - 19.4 °F 86% 30.34 in 10.0 mi Calm Calm - N/A   Clear
12:35 AM 21.2 °F - 19.4 °F 93% 30.35 in 10.0 mi Calm Calm - N/A   Clear
12:55 AM 23.0 °F - 17.6 °F 80% 30.35 in 10.0 mi Calm Calm - N/A   Clear
1:15 AM 21.2 °F - 17.6 °F 86% 30.35 in 10.0 mi Calm Calm - N/A   Clear
1:35 AM 21.2 °F - 17.6 °F 86% 30.35 in 10.0 mi Calm Calm - N/A   Clear
1:55 AM 21.2 °F 16.4 °F 17.6 °F 86% 30.35 in 7.0 mi North 3.5 mph - N/A   Clear
2:15 AM 21.2 °F - 19.4 °F 93% 30.36 in 10.0 mi Calm Calm - N/A   Clear
2:35 AM 21.2 °F 16.4 °F 17.6 °F 86% 30.37 in 10.0 mi NNE 3.5 mph - N/A   Clear
2:55 AM 21.2 °F 16.4 °F 17.6 °F 86% 30.37 in 10.0 mi NE 3.5 mph - N/A   Clear
3:15 AM 21.2 °F 16.4 °F 17.6 °F 86% 30.37 in 10.0 mi NNE 3.5 mph - N/A   Clear
3:35 AM 21.2 °F - 17.6 °F 86% 30.37 in 10.0 mi Calm Calm - N/A   Clear
3:55 AM 21.2 °F 14.9 °F 15.8 °F 80% 30.36 in 10.0 mi ENE 4.6 mph - N/A   Clear
4:15 AM 19.4 °F 12.8 °F 14.0 °F 80% 30.36 in 10.0 mi ENE 4.6 mph - N/A   Clear
4:35 AM 17.6 °F 12.3 °F 14.0 °F 86% 30.36 in 10.0 mi East 3.5 mph - N/A   Clear
4:55 AM 17.6 °F 10.7 °F 14.0 °F 86% 30.37 in 10.0 mi ENE 4.6 mph - N/A   Clear
5:15 AM 19.4 °F 14.3 °F 14.0 °F 80% 30.38 in 10.0 mi East 3.5 mph - N/A   Clear
5:35 AM 19.4 °F - 14.0 °F 80% 30.39 in 10.0 mi Calm Calm - N/A   Clear
5:55 AM 17.6 °F - 14.0 °F 86% 30.40 in 10.0 mi Calm Calm - N/A   Clear
6:15 AM 17.6 °F - 14.0 °F 86% 30.40 in 10.0 mi Calm Calm - N/A   Clear
6:35 AM 15.8 °F - 12.2 °F 86% 30.38 in 10.0 mi Calm Calm - N/A   Clear
6:55 AM 15.8 °F - 12.2 °F 86% 30.39 in 10.0 mi Calm Calm - N/A   Clear
7:15 AM 17.6 °F - 14.0 °F 86% 30.40 in 10.0 mi Calm Calm - N/A   Clear
7:35 AM 15.8 °F - 12.2 °F 86% 30.40 in 10.0 mi Calm Calm - N/A   Clear
7:55 AM 15.8 °F - 12.2 °F 86% 30.41 in 7.0 mi Calm Calm - N/A   Clear
8:15 AM 15.8 °F 10.2 °F 12.2 °F 86% 30.41 in 7.0 mi East 3.5 mph - N/A   Clear
8:35 AM 19.4 °F 14.3 °F 15.8 °F 86% 30.41 in 10.0 mi ESE 3.5 mph - N/A   Clear
8:55 AM 21.2 °F - 15.8 °F 80% 30.42 in 10.0 mi Calm Calm - N/A   Clear
9:15 AM 23.0 °F 18.4 °F 17.6 °F 80% 30.42 in 10.0 mi ESE 3.5 mph - N/A   Clear
9:35 AM 23.0 °F - 17.6 °F 80% 30.42 in 10.0 mi Calm Calm - N/A   Clear
9:55 AM 24.8 °F 20.5 °F 17.6 °F 74% 30.42 in 10.0 mi ESE 3.5 mph - N/A   Clear
10:15 AM 26.6 °F 22.6 °F 17.6 °F 69% 30.41 in 10.0 mi ESE 3.5 mph - N/A   Clear
10:35 AM 26.6 °F 22.6 °F 17.6 °F 69% 30.41 in 10.0 mi SE 3.5 mph - N/A   Clear
10:55 AM 28.4 °F 23.3 °F 17.6 °F 64% 30.41 in 10.0 mi ESE 4.6 mph - N/A   Clear
11:15 AM 28.4 °F 23.3 °F 17.6 °F 64% 30.41 in 10.0 mi SSE 4.6 mph - N/A   Clear
11:35 AM 28.4 °F 23.3 °F 17.6 °F 64% 30.41 in 10.0 mi SSE 4.6 mph - N/A   Clear
11:55 AM 30.2 °F 22.6 °F 17.6 °F 60% 30.41 in 10.0 mi East 8.1 mph - N/A   Clear
12:15 PM 30.2 °F 24.3 °F 19.4 °F 64% 30.40 in 10.0 mi ESE 5.8 mph - N/A   Clear
12:35 PM 32.0 °F 27.5 °F 19.4 °F 60% 30.40 in 10.0 mi South 4.6 mph - N/A   Clear
12:55 PM 32.0 °F 28.7 °F 19.4 °F 60% 30.39 in 10.0 mi SE 3.5 mph - N/A   Clear
1:15 PM 32.0 °F 27.5 °F 19.4 °F 60% 30.38 in 10.0 mi ESE 4.6 mph - N/A   Clear
1:35 PM 32.0 °F 27.5 °F 19.4 °F 60% 30.37 in 10.0 mi South 4.6 mph - N/A   Clear
1:55 PM 32.0 °F 27.5 °F 19.4 °F 60% 30.37 in 10.0 mi South 4.6 mph - N/A   Clear
2:15 PM 32.0 °F 26.4 °F 19.4 °F 60% 30.36 in 10.0 mi SE 5.8 mph - N/A   Clear
2:35 PM 32.0 °F 27.5 °F 21.2 °F 64% 30.34 in 10.0 mi SE 4.6 mph - N/A   Clear
2:55 PM 32.0 °F 25.6 °F 21.2 °F 64% 30.33 in 10.0 mi SE 6.9 mph - N/A   Clear
3:15 PM 32.0 °F 25.6 °F 21.2 °F 64% 30.31 in 10.0 mi ESE 6.9 mph - N/A   Clear
3:35 PM 32.0 °F 24.2 °F 21.2 °F 64% 30.31 in 10.0 mi ESE 9.2 mph - N/A   Clear
3:55 PM 32.0 °F 25.6 °F 21.2 °F 64% 30.31 in 10.0 mi ESE 6.9 mph - N/A   Clear
4:35 PM 32.0 °F 26.4 °F 23.0 °F 69% 30.30 in 10.0 mi ESE 5.8 mph - N/A   Clear
4:55 PM 32.0 °F 28.7 °F 23.0 °F 69% 30.30 in 10.0 mi ESE 3.5 mph - N/A   Clear
5:15 PM 32.0 °F 27.5 °F 23.0 °F 69% 30.30 in 10.0 mi ESE 4.6 mph - N/A   Clear
5:35 PM 32.0 °F 28.7 °F 23.0 °F 69% 30.30 in 10.0 mi ESE 3.5 mph - N/A   Clear
5:55 PM 30.2 °F 26.7 °F 23.0 °F 75% 30.30 in 10.0 mi ESE 3.5 mph - N/A   Clear
6:15 PM 30.2 °F 26.7 °F 21.2 °F 69% 30.30 in 10.0 mi ESE 3.5 mph - N/A   Clear
6:35 PM 28.4 °F 24.6 °F 21.2 °F 74% 30.29 in 10.0 mi East 3.5 mph - N/A   Clear
6:55 PM 28.4 °F 24.6 °F 21.2 °F 74% 30.29 in 10.0 mi ESE 3.5 mph - N/A   Clear
7:15 PM 28.4 °F 24.6 °F 21.2 °F 74% 30.28 in 10.0 mi ESE 3.5 mph - N/A   Clear
7:35 PM 28.4 °F 23.3 °F 21.2 °F 74% 30.28 in 10.0 mi ESE 4.6 mph - N/A   Clear
7:55 PM 28.4 °F 23.3 °F 19.4 °F 69% 30.27 in 10.0 mi ESE 4.6 mph - N/A   Clear
8:15 PM 28.4 °F 23.3 °F 19.4 °F 69% 30.27 in 10.0 mi ESE 4.6 mph - N/A   Clear
8:35 PM 28.4 °F 23.3 °F 19.4 °F 69% 30.27 in 10.0 mi East 4.6 mph - N/A   Clear
8:55 PM 28.4 °F 23.3 °F 19.4 °F 69% 30.27 in 10.0 mi East 4.6 mph - N/A   Clear
9:15 PM 26.6 °F 21.2 °F 19.4 °F 74% 30.26 in 10.0 mi East 4.6 mph - N/A   Clear
9:35 PM 23.0 °F 18.4 °F 19.4 °F 86% 30.26 in 10.0 mi East 3.5 mph - N/A   Clear
9:55 PM 26.6 °F 20.0 °F 21.2 °F 80% 30.25 in 10.0 mi East 5.8 mph - N/A   Clear
10:15 PM 28.4 °F 24.6 °F 21.2 °F 74% 30.26 in 10.0 mi ESE 3.5 mph - N/A   Clear
10:35 PM 28.4 °F 23.3 °F 21.2 °F 74% 30.26 in 10.0 mi ESE 4.6 mph - N/A   Clear
10:55 PM 28.4 °F 23.3 °F 21.2 °F 74% 30.25 in 10.0 mi ESE 4.6 mph - N/A   Clear
11:15 PM 28.4 °F 22.2 °F 21.2 °F 74% 30.24 in 10.0 mi ESE 5.8 mph - N/A   Clear
11:35 PM 28.4 °F 22.2 °F 23.0 °F 80% 30.23 in 10.0 mi ESE 5.8 mph - N/A   Clear
11:55 PM 28.4 °F 22.2 °F 23.0 °F 80% 30.22 in 10.0 mi ESE 5.8 mph - N/A   Clear